Terminal Aerodrome Forecast
Issued by NWS Twin Cities, MN

Home | Current Version | Previous Version | Text Only | Print | Product List | Glossary On
Versions: 1 2 3 4 5 6 7 8 9 10 11 12 13 14 15 16
882
FTUS43 KMPX 271925 AAA
TAFSTC
TAF AMD
KSTC 271925Z 2719/2818 15007KT P6SM OVC025
     FM280200 18003KT P6SM SCT015 SCT200
     FM280800 13003KT 3SM BR SCT005 BKN100
     FM281400 14007KT P6SM SCT025 BKN250=

USA.gov is the U.S. government's official web portal to all federal, state and local government web resources and services.